sensor_id;sensor_type;location;lat;lon;timestamp;pressure;altitude;pressure_sealevel;temperature;humidity
30897;BME280;64229;52.246;21.054;2022-12-10T00:01:07;99649.84;;;1.16;93.97
30897;BME280;64229;52.246;21.054;2022-12-10T00:03:33;99655.50;;;1.20;94.59
30897;BME280;64229;52.246;21.054;2022-12-10T00:06:02;99656.50;;;1.19;94.84
30897;BME280;64229;52.246;21.054;2022-12-10T00:08:28;99648.84;;;1.18;95.18
30897;BME280;64229;52.246;21.054;2022-12-10T00:10:54;99645.19;;;1.19;94.51
30897;BME280;64229;52.246;21.054;2022-12-10T00:13:19;99654.81;;;1.25;94.13
30897;BME280;64229;52.246;21.054;2022-12-10T00:15:44;99649.56;;;1.25;94.52
30897;BME280;64229;52.246;21.054;2022-12-10T00:18:09;99632.13;;;1.12;94.42
30897;BME280;64229;52.246;21.054;2022-12-10T00:20:36;99647.50;;;1.27;94.82
30897;BME280;64229;52.246;21.054;2022-12-10T00:23:02;99645.09;;;1.25;94.18
30897;BME280;64229;52.246;21.054;2022-12-10T00:25:27;99646.72;;;1.26;94.46
30897;BME280;64229;52.246;21.054;2022-12-10T00:27:52;99652.13;;;1.31;94.13
30897;BME280;64229;52.246;21.054;2022-12-10T00:30:18;99647.31;;;1.28;94.24
30897;BME280;64229;52.246;21.054;2022-12-10T00:32:43;99646.06;;;1.31;93.88
30897;BME280;64229;52.246;21.054;2022-12-10T00:35:08;99646.72;;;1.26;94.11
30897;BME280;64229;52.246;21.054;2022-12-10T00:37:34;99641.44;;;1.26;94.39
30897;BME280;64229;52.246;21.054;2022-12-10T00:39:59;99649.22;;;1.21;94.79
30897;BME280;64229;52.246;21.054;2022-12-10T00:42:24;99655.84;;;1.24;94.68
30897;BME280;64229;52.246;21.054;2022-12-10T00:44:50;99654.03;;;1.24;94.63
30897;BME280;64229;52.246;21.054;2022-12-10T00:47:15;99651.47;;;1.18;95.86
30897;BME280;64229;52.246;21.054;2022-12-10T00:49:40;99658.81;;;1.27;95.11
30897;BME280;64229;52.246;21.054;2022-12-10T00:52:06;99655.63;;;1.25;94.72
30897;BME280;64229;52.246;21.054;2022-12-10T00:54:31;99657.22;;;1.26;95.46
30897;BME280;64229;52.246;21.054;2022-12-10T00:56:56;99640.97;;;1.18;95.11
30897;BME280;64229;52.246;21.054;2022-12-10T00:59:22;99654.19;;;1.29;95.48
30897;BME280;64229;52.246;21.054;2022-12-10T01:01:47;99645.09;;;1.25;94.94
30897;BME280;64229;52.246;21.054;2022-12-10T01:04:14;99650.94;;;1.27;95.42
30897;BME280;64229;52.246;21.054;2022-12-10T01:06:51;99650.13;;;1.27;95.83
30897;BME280;64229;52.246;21.054;2022-12-10T01:09:19;99654.53;;;1.33;95.33
30897;BME280;64229;52.246;21.054;2022-12-10T01:11:46;99651.38;;;1.24;95.77
30897;BME280;64229;52.246;21.054;2022-12-10T01:14:16;99649.28;;;1.33;95.33
30897;BME280;64229;52.246;21.054;2022-12-10T01:16:43;99654.25;;;1.23;95.63
30897;BME280;64229;52.246;21.054;2022-12-10T01:19:08;99649.72;;;1.30;95.76
30897;BME280;64229;52.246;21.054;2022-12-10T01:21:34;99640.00;;;1.30;94.14
30897;BME280;64229;52.246;21.054;2022-12-10T01:23:59;99641.50;;;1.38;94.05
30897;BME280;64229;52.246;21.054;2022-12-10T01:26:28;99641.31;;;1.39;94.01
30897;BME280;64229;52.246;21.054;2022-12-10T01:28:56;99638.88;;;1.38;93.68
30897;BME280;64229;52.246;21.054;2022-12-10T01:31:33;99605.53;;;1.20;94.18
30897;BME280;64229;52.246;21.054;2022-12-10T01:34:00;99630.88;;;1.33;93.99
30897;BME280;64229;52.246;21.054;2022-12-10T01:36:27;99627.09;;;1.29;93.82
30897;BME280;64229;52.246;21.054;2022-12-10T01:38:53;99626.78;;;1.19;94.53
30897;BME280;64229;52.246;21.054;2022-12-10T01:41:24;99617.22;;;1.24;95.34
30897;BME280;64229;52.246;21.054;2022-12-10T01:46:39;99611.09;;;1.30;94.89
30897;BME280;64229;52.246;21.054;2022-12-10T01:49:08;99612.25;;;1.34;93.76
30897;BME280;64229;52.246;21.054;2022-12-10T01:51:36;99615.09;;;1.33;93.95
30897;BME280;64229;52.246;21.054;2022-12-10T01:54:03;99615.25;;;1.20;93.47
30897;BME280;64229;52.246;21.054;2022-12-10T01:56:31;99621.91;;;1.22;93.76
30897;BME280;64229;52.246;21.054;2022-12-10T01:58:56;99618.25;;;1.23;94.61
30897;BME280;64229;52.246;21.054;2022-12-10T02:04:14;99611.16;;;1.24;94.50
30897;BME280;64229;52.246;21.054;2022-12-10T02:06:53;99611.03;;;1.19;94.29
30897;BME280;64229;52.246;21.054;2022-12-10T02:09:29;99627.38;;;1.21;94.26
30897;BME280;64229;52.246;21.054;2022-12-10T02:14:55;99626.19;;;1.16;94.89
30897;BME280;64229;52.246;21.054;2022-12-10T02:20:20;99624.41;;;1.17;94.71
30897;BME280;64229;52.246;21.054;2022-12-10T02:22:56;99626.00;;;1.18;94.89
30897;BME280;64229;52.246;21.054;2022-12-10T02:25:26;99629.66;;;1.17;94.60
30897;BME280;64229;52.246;21.054;2022-12-10T02:30:36;99620.13;;;1.16;94.90
30897;BME280;64229;52.246;21.054;2022-12-10T02:33:03;99616.94;;;1.14;94.83
30897;BME280;64229;52.246;21.054;2022-12-10T02:35:33;99620.94;;;1.16;94.63
30897;BME280;64229;52.246;21.054;2022-12-10T02:38:10;99627.31;;;1.09;95.98
30897;BME280;64229;52.246;21.054;2022-12-10T02:40:38;99609.31;;;1.06;96.09
30897;BME280;64229;52.246;21.054;2022-12-10T02:43:06;99628.81;;;1.16;96.17
30897;BME280;64229;52.246;21.054;2022-12-10T02:45:33;99624.06;;;1.25;95.30
30897;BME280;64229;52.246;21.054;2022-12-10T02:48:01;99620.22;;;1.28;94.18
30897;BME280;64229;52.246;21.054;2022-12-10T02:50:27;99614.97;;;1.28;93.77
30897;BME280;64229;52.246;21.054;2022-12-10T02:52:52;99624.88;;;1.26;93.82
30897;BME280;64229;52.246;21.054;2022-12-10T02:55:18;99626.72;;;1.25;93.84
30897;BME280;64229;52.246;21.054;2022-12-10T03:00:25;99608.91;;;1.09;94.61
30897;BME280;64229;52.246;21.054;2022-12-10T03:05:55;99626.56;;;1.20;94.20
30897;BME280;64229;52.246;21.054;2022-12-10T03:08:45;99617.94;;;1.13;93.69
30897;BME280;64229;52.246;21.054;2022-12-10T03:11:12;99625.03;;;1.12;95.02
30897;BME280;64229;52.246;21.054;2022-12-10T03:14:02;99626.28;;;1.10;95.65
30897;BME280;64229;52.246;21.054;2022-12-10T03:16:39;99619.19;;;1.10;95.56
30897;BME280;64229;52.246;21.054;2022-12-10T03:19:12;99618.19;;;1.11;94.66
30897;BME280;64229;52.246;21.054;2022-12-10T03:21:41;99608.47;;;1.12;94.86
30897;BME280;64229;52.246;21.054;2022-12-10T03:24:10;99610.28;;;1.11;95.16
30897;BME280;64229;52.246;21.054;2022-12-10T03:26:40;99614.81;;;1.04;94.86
30897;BME280;64229;52.246;21.054;2022-12-10T03:29:08;99612.84;;;1.00;94.98
30897;BME280;64229;52.246;21.054;2022-12-10T03:31:37;99619.75;;;0.94;95.87
30897;BME280;64229;52.246;21.054;2022-12-10T03:34:04;99632.50;;;0.97;95.84
30897;BME280;64229;52.246;21.054;2022-12-10T03:36:30;99624.97;;;1.01;94.91
30897;BME280;64229;52.246;21.054;2022-12-10T03:38:57;99618.31;;;0.98;94.91
30897;BME280;64229;52.246;21.054;2022-12-10T03:41:22;99624.44;;;0.92;94.67
30897;BME280;64229;52.246;21.054;2022-12-10T03:43:56;99625.31;;;0.86;95.89
30897;BME280;64229;52.246;21.054;2022-12-10T03:46:22;99623.91;;;0.83;95.27
30897;BME280;64229;52.246;21.054;2022-12-10T03:48:48;99616.53;;;0.74;95.78
30897;BME280;64229;52.246;21.054;2022-12-10T03:51:14;99628.59;;;0.81;95.92
30897;BME280;64229;52.246;21.054;2022-12-10T03:53:40;99619.91;;;0.81;96.09
30897;BME280;64229;52.246;21.054;2022-12-10T03:56:05;99620.69;;;0.81;96.60
30897;BME280;64229;52.246;21.054;2022-12-10T03:58:31;99623.91;;;0.83;96.23
30897;BME280;64229;52.246;21.054;2022-12-10T04:00:56;99626.47;;;0.90;96.77
30897;BME280;64229;52.246;21.054;2022-12-10T04:03:21;99630.28;;;0.94;95.92
30897;BME280;64229;52.246;21.054;2022-12-10T04:05:47;99604.31;;;0.86;95.10
30897;BME280;64229;52.246;21.054;2022-12-10T04:08:12;99619.94;;;0.99;94.88
30897;BME280;64229;52.246;21.054;2022-12-10T04:10:37;99625.81;;;0.95;94.98
30897;BME280;64229;52.246;21.054;2022-12-10T04:13:03;99627.88;;;0.93;95.45
30897;BME280;64229;52.246;21.054;2022-12-10T04:15:47;99608.16;;;0.83;94.73
30897;BME280;64229;52.246;21.054;2022-12-10T04:18:31;99622.03;;;0.91;94.60
30897;BME280;64229;52.246;21.054;2022-12-10T04:20:57;99628.31;;;0.90;94.71
30897;BME280;64229;52.246;21.054;2022-12-10T04:23:41;99614.50;;;0.94;94.82
30897;BME280;64229;52.246;21.054;2022-12-10T04:26:25;99617.56;;;0.91;94.87
30897;BME280;64229;52.246;21.054;2022-12-10T04:29:09;99626.72;;;0.89;94.82
30897;BME280;64229;52.246;21.054;2022-12-10T04:31:34;99632.41;;;0.85;95.37
30897;BME280;64229;52.246;21.054;2022-12-10T04:34:00;99634.81;;;0.87;95.99
30897;BME280;64229;52.246;21.054;2022-12-10T04:36:25;99638.03;;;0.89;95.46
30897;BME280;64229;52.246;21.054;2022-12-10T04:38:50;99633.28;;;0.98;94.41
30897;BME280;64229;52.246;21.054;2022-12-10T04:41:16;99628.03;;;0.98;94.19
30897;BME280;64229;52.246;21.054;2022-12-10T04:43:42;99632.91;;;0.94;94.28
30897;BME280;64229;52.246;21.054;2022-12-10T04:46:08;99619.75;;;0.94;94.66
30897;BME280;64229;52.246;21.054;2022-12-10T04:48:34;99624.66;;;0.91;95.13
30897;BME280;64229;52.246;21.054;2022-12-10T04:50:59;99626.03;;;0.93;95.01
30897;BME280;64229;52.246;21.054;2022-12-10T04:53:24;99631.47;;;0.98;95.14
30897;BME280;64229;52.246;21.054;2022-12-10T04:55:50;99628.56;;;1.06;94.42
30897;BME280;64229;52.246;21.054;2022-12-10T04:58:15;99638.03;;;1.07;94.39
30897;BME280;64229;52.246;21.054;2022-12-10T05:00:40;99623.34;;;1.00;93.72
30897;BME280;64229;52.246;21.054;2022-12-10T05:03:06;99628.88;;;0.92;94.63
30897;BME280;64229;52.246;21.054;2022-12-10T05:05:33;99632.31;;;0.92;94.78
30897;BME280;64229;52.246;21.054;2022-12-10T05:07:59;99630.72;;;0.91;95.13
30897;BME280;64229;52.246;21.054;2022-12-10T05:10:24;99630.50;;;0.93;94.98
30897;BME280;64229;52.246;21.054;2022-12-10T05:12:50;99643.09;;;0.84;94.91
30897;BME280;64229;52.246;21.054;2022-12-10T05:15:15;99640.47;;;0.84;94.88
30897;BME280;64229;52.246;21.054;2022-12-10T05:17:41;99641.28;;;0.84;95.05
30897;BME280;64229;52.246;21.054;2022-12-10T05:20:07;99634.72;;;0.75;95.56
30897;BME280;64229;52.246;21.054;2022-12-10T05:22:32;99639.63;;;0.90;95.29
30897;BME280;64229;52.246;21.054;2022-12-10T05:25:16;99638.06;;;0.82;94.33
30897;BME280;64229;52.246;21.054;2022-12-10T05:27:42;99646.97;;;0.81;94.51
30897;BME280;64229;52.246;21.054;2022-12-10T05:30:08;99646.53;;;0.84;94.77
30897;BME280;64229;52.246;21.054;2022-12-10T05:32:34;99643.31;;;0.82;94.35
30897;BME280;64229;52.246;21.054;2022-12-10T05:34:59;99651.16;;;0.89;94.29
30897;BME280;64229;52.246;21.054;2022-12-10T05:37:25;99643.50;;;0.88;94.42
30897;BME280;64229;52.246;21.054;2022-12-10T05:39:50;99659.63;;;0.91;93.75
30897;BME280;64229;52.246;21.054;2022-12-10T05:42:15;99659.03;;;0.89;94.35
30897;BME280;64229;52.246;21.054;2022-12-10T05:44:41;99660.47;;;0.85;93.81
30897;BME280;64229;52.246;21.054;2022-12-10T05:47:06;99663.41;;;0.77;94.34
30897;BME280;64229;52.246;21.054;2022-12-10T05:49:31;99671.28;;;0.77;94.62
30897;BME280;64229;52.246;21.054;2022-12-10T05:51:57;99664.34;;;0.82;94.00
30897;BME280;64229;52.246;21.054;2022-12-10T05:54:22;99663.75;;;0.80;94.40
30897;BME280;64229;52.246;21.054;2022-12-10T05:56:47;99660.31;;;0.80;93.70
30897;BME280;64229;52.246;21.054;2022-12-10T05:59:13;99661.19;;;0.74;93.39
30897;BME280;64229;52.246;21.054;2022-12-10T06:01:38;99661.41;;;0.72;93.50
30897;BME280;64229;52.246;21.054;2022-12-10T06:04:05;99664.91;;;0.66;93.32
30897;BME280;64229;52.246;21.054;2022-12-10T06:06:32;99664.69;;;0.68;94.65
30897;BME280;64229;52.246;21.054;2022-12-10T06:08:58;99668.47;;;0.72;93.81
30897;BME280;64229;52.246;21.054;2022-12-10T06:11:25;99665.44;;;0.75;94.12
30897;BME280;64229;52.246;21.054;2022-12-10T06:13:51;99670.88;;;0.73;93.93
30897;BME280;64229;52.246;21.054;2022-12-10T06:16:17;99677.16;;;0.72;93.99
30897;BME280;64229;52.246;21.054;2022-12-10T06:18:42;99665.38;;;0.81;93.64
30897;BME280;64229;52.246;21.054;2022-12-10T06:21:14;99675.88;;;0.81;93.59
30897;BME280;64229;52.246;21.054;2022-12-10T06:23:40;99664.41;;;0.76;94.38
30897;BME280;64229;52.246;21.054;2022-12-10T06:26:08;99672.22;;;0.82;94.10
30897;BME280;64229;52.246;21.054;2022-12-10T06:28:35;99661.66;;;0.89;93.82
30897;BME280;64229;52.246;21.054;2022-12-10T06:31:01;99668.31;;;0.92;93.48
30897;BME280;64229;52.246;21.054;2022-12-10T06:33:27;99676.75;;;0.94;92.67
30897;BME280;64229;52.246;21.054;2022-12-10T06:35:52;99682.03;;;0.94;93.21
30897;BME280;64229;52.246;21.054;2022-12-10T06:38:18;99679.25;;;0.89;93.29
30897;BME280;64229;52.246;21.054;2022-12-10T06:40:44;99669.44;;;0.77;93.54
30897;BME280;64229;52.246;21.054;2022-12-10T06:43:09;99695.66;;;0.84;93.73
30897;BME280;64229;52.246;21.054;2022-12-10T06:45:38;99675.94;;;0.75;94.08
30897;BME280;64229;52.246;21.054;2022-12-10T06:48:04;99695.06;;;0.82;94.09
30897;BME280;64229;52.246;21.054;2022-12-10T06:50:29;99690.06;;;0.74;94.52
30897;BME280;64229;52.246;21.054;2022-12-10T06:52:55;99697.47;;;0.83;95.00
30897;BME280;64229;52.246;21.054;2022-12-10T06:55:21;99696.63;;;0.90;94.60
30897;BME280;64229;52.246;21.054;2022-12-10T06:57:46;99693.19;;;0.89;94.01
30897;BME280;64229;52.246;21.054;2022-12-10T07:00:12;99697.66;;;0.89;94.35
30897;BME280;64229;52.246;21.054;2022-12-10T07:02:38;99697.25;;;0.85;94.83
30897;BME280;64229;52.246;21.054;2022-12-10T07:05:03;99703.13;;;0.87;94.64
30897;BME280;64229;52.246;21.054;2022-12-10T07:07:29;99694.00;;;0.90;95.14
30897;BME280;64229;52.246;21.054;2022-12-10T07:09:54;99701.81;;;0.96;94.36
30897;BME280;64229;52.246;21.054;2022-12-10T07:12:19;99704.25;;;0.98;94.44
30897;BME280;64229;52.246;21.054;2022-12-10T07:14:45;99702.19;;;1.00;94.43
30897;BME280;64229;52.246;21.054;2022-12-10T07:17:10;99695.16;;;0.94;94.85
30897;BME280;64229;52.246;21.054;2022-12-10T07:19:35;99687.84;;;0.96;94.53
30897;BME280;64229;52.246;21.054;2022-12-10T07:22:01;99697.78;;;0.94;95.54
30897;BME280;64229;52.246;21.054;2022-12-10T07:24:26;99697.78;;;0.94;96.11
30897;BME280;64229;52.246;21.054;2022-12-10T07:26:51;99681.13;;;0.81;95.21
30897;BME280;64229;52.246;21.054;2022-12-10T07:29:19;99695.56;;;0.97;95.10
30897;BME280;64229;52.246;21.054;2022-12-10T07:31:46;99702.25;;;0.93;95.52
30897;BME280;64229;52.246;21.054;2022-12-10T07:34:13;99708.81;;;1.02;95.51
30897;BME280;64229;52.246;21.054;2022-12-10T07:36:38;99707.97;;;1.08;95.01
30897;BME280;64229;52.246;21.054;2022-12-10T07:39:05;99702.50;;;1.10;95.01
30897;BME280;64229;52.246;21.054;2022-12-10T07:41:31;99716.00;;;1.13;94.63
30897;BME280;64229;52.246;21.054;2022-12-10T07:43:57;99697.88;;;1.05;95.42
30897;BME280;64229;52.246;21.054;2022-12-10T07:46:26;99715.28;;;1.06;95.27
30897;BME280;64229;52.246;21.054;2022-12-10T07:48:53;99706.28;;;1.14;95.01
30897;BME280;64229;52.246;21.054;2022-12-10T07:51:19;99709.31;;;1.18;94.88
30897;BME280;64229;52.246;21.054;2022-12-10T07:53:46;99710.25;;;1.23;94.28
30897;BME280;64229;52.246;21.054;2022-12-10T07:56:11;99713.47;;;1.25;94.33
30897;BME280;64229;52.246;21.054;2022-12-10T07:58:41;99715.50;;;1.23;94.04
30897;BME280;64229;52.246;21.054;2022-12-10T08:01:09;99696.16;;;1.18;94.07
30897;BME280;64229;52.246;21.054;2022-12-10T08:03:35;99704.34;;;1.28;93.61
30897;BME280;64229;52.246;21.054;2022-12-10T08:06:15;99692.44;;;1.25;94.40
30897;BME280;64229;52.246;21.054;2022-12-10T08:08:42;99701.03;;;1.14;94.39
30897;BME280;64229;52.246;21.054;2022-12-10T08:11:08;99699.72;;;1.23;94.63
30897;BME280;64229;52.246;21.054;2022-12-10T08:13:35;99692.38;;;1.32;94.45
30897;BME280;64229;52.246;21.054;2022-12-10T08:16:08;99694.84;;;1.27;94.08
30897;BME280;64229;52.246;21.054;2022-12-10T08:18:35;99699.72;;;1.23;95.05
30897;BME280;64229;52.246;21.054;2022-12-10T08:21:09;99675.94;;;1.18;94.40
30897;BME280;64229;52.246;21.054;2022-12-10T08:23:34;99699.69;;;1.30;94.88
30897;BME280;64229;52.246;21.054;2022-12-10T08:26:07;99691.00;;;1.29;94.51
30897;BME280;64229;52.246;21.054;2022-12-10T08:28:33;99705.81;;;1.42;94.45
30897;BME280;64229;52.246;21.054;2022-12-10T08:30:59;99689.97;;;1.30;93.99
30897;BME280;64229;52.246;21.054;2022-12-10T08:33:24;99684.94;;;1.29;94.43
30897;BME280;64229;52.246;21.054;2022-12-10T08:35:50;99692.22;;;1.27;94.30
30897;BME280;64229;52.246;21.054;2022-12-10T08:38:15;99694.63;;;1.28;94.42
30897;BME280;64229;52.246;21.054;2022-12-10T08:40:41;99700.69;;;1.29;94.38
30897;BME280;64229;52.246;21.054;2022-12-10T08:43:07;99696.88;;;1.25;94.25
30897;BME280;64229;52.246;21.054;2022-12-10T08:45:32;99697.31;;;1.22;95.09
30897;BME280;64229;52.246;21.054;2022-12-10T08:48:00;99700.19;;;1.20;94.89
30897;BME280;64229;52.246;21.054;2022-12-10T08:50:25;99689.13;;;1.11;96.23
30897;BME280;64229;52.246;21.054;2022-12-10T08:52:50;99696.47;;;1.28;94.57
30897;BME280;64229;52.246;21.054;2022-12-10T08:55:16;99702.72;;;1.27;94.63
30897;BME280;64229;52.246;21.054;2022-12-10T08:57:41;99686.88;;;1.15;95.27
30897;BME280;64229;52.246;21.054;2022-12-10T09:00:07;99700.25;;;1.32;94.87
30897;BME280;64229;52.246;21.054;2022-12-10T09:02:32;99694.63;;;1.28;94.96
30897;BME280;64229;52.246;21.054;2022-12-10T09:04:58;99705.47;;;1.38;95.38
30897;BME280;64229;52.246;21.054;2022-12-10T09:07:23;99706.41;;;1.44;95.26
30897;BME280;64229;52.246;21.054;2022-12-10T09:09:48;99707.41;;;1.43;94.94
30897;BME280;64229;52.246;21.054;2022-12-10T09:12:14;99709.38;;;1.48;94.39
30897;BME280;64229;52.246;21.054;2022-12-10T09:14:39;99709.31;;;1.54;94.17
30897;BME280;64229;52.246;21.054;2022-12-10T09:17:07;99721.78;;;1.59;94.03
30897;BME280;64229;52.246;21.054;2022-12-10T09:19:33;99727.06;;;1.59;93.74
30897;BME280;64229;52.246;21.054;2022-12-10T09:21:58;99723.78;;;1.63;93.55
30897;BME280;64229;52.246;21.054;2022-12-10T09:24:23;99725.84;;;1.61;93.77
30897;BME280;64229;52.246;21.054;2022-12-10T09:26:48;99720.78;;;1.60;92.96
30897;BME280;64229;52.246;21.054;2022-12-10T09:29:14;99729.09;;;1.57;92.83
30897;BME280;64229;52.246;21.054;2022-12-10T09:31:39;99719.63;;;1.56;92.98
30897;BME280;64229;52.246;21.054;2022-12-10T09:34:05;99720.69;;;1.48;93.58
30897;BME280;64229;52.246;21.054;2022-12-10T09:36:30;99715.44;;;1.48;94.48
30897;BME280;64229;52.246;21.054;2022-12-10T09:38:55;99703.19;;;1.42;94.03
30897;BME280;64229;52.246;21.054;2022-12-10T09:46:51;99705.81;;;1.60;93.44
30897;BME280;64229;52.246;21.054;2022-12-10T09:51:48;99694.03;;;1.44;92.41
30897;BME280;64229;52.246;21.054;2022-12-10T09:54:21;99694.13;;;1.56;93.43
30897;BME280;64229;52.246;21.054;2022-12-10T09:56:50;99702.16;;;1.61;93.31
30897;BME280;64229;52.246;21.054;2022-12-10T09:59:23;99707.78;;;1.65;93.09
30897;BME280;64229;52.246;21.054;2022-12-10T10:04:28;99724.13;;;1.67;92.97
30897;BME280;64229;52.246;21.054;2022-12-10T10:06:54;99731.09;;;1.61;92.94
30897;BME280;64229;52.246;21.054;2022-12-10T10:09:20;99738.81;;;1.56;93.91
30897;BME280;64229;52.246;21.054;2022-12-10T10:11:46;99731.81;;;1.68;93.39
30897;BME280;64229;52.246;21.054;2022-12-10T10:14:14;99723.13;;;1.68;92.29
30897;BME280;64229;52.246;21.054;2022-12-10T10:16:51;99731.44;;;1.83;91.94
30897;BME280;64229;52.246;21.054;2022-12-10T10:19:25;99733.69;;;1.80;92.40
30897;BME280;64229;52.246;21.054;2022-12-10T10:21:51;99732.25;;;1.84;91.70
30897;BME280;64229;52.246;21.054;2022-12-10T10:24:33;99730.03;;;1.81;91.44
30897;BME280;64229;52.246;21.054;2022-12-10T10:27:10;99735.09;;;1.82;91.40
30897;BME280;64229;52.246;21.054;2022-12-10T10:29:36;99726.25;;;1.77;91.42
30897;BME280;64229;52.246;21.054;2022-12-10T10:34:46;99711.38;;;1.70;91.40
30897;BME280;64229;52.246;21.054;2022-12-10T10:37:19;99730.88;;;1.81;93.03
30897;BME280;64229;52.246;21.054;2022-12-10T10:39:49;99718.63;;;1.87;91.27
30897;BME280;64229;52.246;21.054;2022-12-10T10:42:25;99719.03;;;2.02;90.97
30897;BME280;64229;52.246;21.054;2022-12-10T10:44:52;99716.00;;;2.05;90.86
30897;BME280;64229;52.246;21.054;2022-12-10T10:47:27;99714.50;;;2.09;90.41
30897;BME280;64229;52.246;21.054;2022-12-10T10:49:53;99710.41;;;2.13;89.82
30897;BME280;64229;52.246;21.054;2022-12-10T10:52:19;99708.44;;;2.09;90.32
30897;BME280;64229;52.246;21.054;2022-12-10T10:54:46;99700.31;;;2.10;89.96
30897;BME280;64229;52.246;21.054;2022-12-10T10:57:19;99700.09;;;2.12;90.41
30897;BME280;64229;52.246;21.054;2022-12-10T10:59:47;99686.72;;;2.13;89.86
30897;BME280;64229;52.246;21.054;2022-12-10T11:02:38;99688.69;;;2.18;89.88
30897;BME280;64229;52.246;21.054;2022-12-10T11:05:14;99681.00;;;2.16;89.60
30897;BME280;64229;52.246;21.054;2022-12-10T11:07:41;99673.34;;;2.15;90.65
30897;BME280;64229;52.246;21.054;2022-12-10T11:10:27;99674.06;;;1.92;90.29
30897;BME280;64229;52.246;21.054;2022-12-10T11:15:37;99670.16;;;1.94;90.53
30897;BME280;64229;52.246;21.054;2022-12-10T11:23:27;99678.56;;;2.03;90.34
30897;BME280;64229;52.246;21.054;2022-12-10T11:34:09;99661.09;;;1.90;90.83
30897;BME280;64229;52.246;21.054;2022-12-10T11:37:11;99663.53;;;1.92;90.38
30897;BME280;64229;52.246;21.054;2022-12-10T11:51:17;99668.53;;;1.82;91.25
30897;BME280;64229;52.246;21.054;2022-12-10T11:53:50;99664.63;;;1.84;90.51
30897;BME280;64229;52.246;21.054;2022-12-10T12:04:33;99670.66;;;1.73;90.43
30897;BME280;64229;52.246;21.054;2022-12-10T12:14:59;99693.44;;;1.79;90.17
30897;BME280;64229;52.246;21.054;2022-12-10T12:17:36;99695.03;;;1.80;90.67
30897;BME280;64229;52.246;21.054;2022-12-10T12:20:18;99690.16;;;1.84;89.90
30897;BME280;64229;52.246;21.054;2022-12-10T12:22:48;99697.81;;;1.85;90.08
30897;BME280;64229;52.246;21.054;2022-12-10T12:25:23;99695.13;;;1.92;89.88
30897;BME280;64229;52.246;21.054;2022-12-10T12:28:11;99693.84;;;1.94;89.23
30897;BME280;64229;52.246;21.054;2022-12-10T12:30:37;99679.78;;;1.70;89.02
30897;BME280;64229;52.246;21.054;2022-12-10T12:33:15;99692.28;;;1.75;90.26
30897;BME280;64229;52.246;21.054;2022-12-10T12:35:48;99688.03;;;1.74;90.23
30897;BME280;64229;52.246;21.054;2022-12-10T12:38:26;99688.06;;;1.56;90.23
30897;BME280;64229;52.246;21.054;2022-12-10T12:40:56;99689.13;;;1.48;91.34
30897;BME280;64229;52.246;21.054;2022-12-10T12:43:31;99685.06;;;1.52;91.09
30897;BME280;64229;52.246;21.054;2022-12-10T12:45:59;99694.78;;;1.52;91.07
30897;BME280;64229;52.246;21.054;2022-12-10T12:51:26;99706.09;;;1.52;90.71
30897;BME280;64229;52.246;21.054;2022-12-10T12:53:53;99704.00;;;1.42;90.92
30897;BME280;64229;52.246;21.054;2022-12-10T12:59:33;99707.19;;;1.44;91.56
30897;BME280;64229;52.246;21.054;2022-12-10T13:02:19;99693.44;;;1.24;91.42
30897;BME280;64229;52.246;21.054;2022-12-10T13:04:47;99720.00;;;1.41;91.46
30897;BME280;64229;52.246;21.054;2022-12-10T13:09:50;99725.38;;;1.46;92.06
30897;BME280;64229;52.246;21.054;2022-12-10T13:12:18;99736.28;;;1.50;91.80
30897;BME280;64229;52.246;21.054;2022-12-10T13:17:36;99729.03;;;1.45;91.40
30897;BME280;64229;52.246;21.054;2022-12-10T13:23:00;99743.50;;;1.54;92.46
30897;BME280;64229;52.246;21.054;2022-12-10T13:36:36;99754.53;;;1.63;90.81
30897;BME280;64229;52.246;21.054;2022-12-10T13:41:27;99745.84;;;1.62;90.82
30897;BME280;64229;52.246;21.054;2022-12-10T13:44:48;99743.44;;;1.61;90.81
30897;BME280;64229;52.246;21.054;2022-12-10T13:47:41;99755.19;;;1.58;91.32
30897;BME280;64229;52.246;21.054;2022-12-10T13:50:19;99737.94;;;1.44;90.81
30897;BME280;64229;52.246;21.054;2022-12-10T14:01:09;99755.84;;;1.54;91.56
30897;BME280;64229;52.246;21.054;2022-12-10T14:06:16;99758.56;;;1.65;90.34
30897;BME280;64229;52.246;21.054;2022-12-10T14:11:22;99749.34;;;1.56;89.25
30897;BME280;64229;52.246;21.054;2022-12-10T14:13:55;99743.28;;;1.56;89.96
30897;BME280;64229;52.246;21.054;2022-12-10T14:16:23;99746.94;;;1.55;89.78
30897;BME280;64229;52.246;21.054;2022-12-10T14:18:59;99748.63;;;1.49;89.60
30897;BME280;64229;52.246;21.054;2022-12-10T14:21:25;99751.94;;;1.38;89.63
30897;BME280;64229;52.246;21.054;2022-12-10T14:23:52;99752.78;;;1.38;90.82
30897;BME280;64229;52.246;21.054;2022-12-10T14:26:21;99756.13;;;1.45;90.29
30897;BME280;64229;52.246;21.054;2022-12-10T14:29:00;99753.91;;;1.49;90.29
30897;BME280;64229;52.246;21.054;2022-12-10T14:31:31;99751.41;;;1.54;89.78
30897;BME280;64229;52.246;21.054;2022-12-10T14:34:01;99740.88;;;1.54;88.92
30897;BME280;64229;52.246;21.054;2022-12-10T14:36:31;99739.28;;;1.53;89.19
30897;BME280;64229;52.246;21.054;2022-12-10T14:38:58;99744.31;;;1.55;88.32
30897;BME280;64229;52.246;21.054;2022-12-10T14:41:26;99742.53;;;1.49;88.52
30897;BME280;64229;52.246;21.054;2022-12-10T14:43:53;99738.44;;;1.34;88.72
30897;BME280;64229;52.246;21.054;2022-12-10T14:46:28;99751.16;;;1.37;89.67
30897;BME280;64229;52.246;21.054;2022-12-10T14:48:54;99758.75;;;1.45;89.77
30897;BME280;64229;52.246;21.054;2022-12-10T14:51:23;99754.09;;;1.48;88.32
30897;BME280;64229;52.246;21.054;2022-12-10T14:53:51;99749.44;;;1.50;88.55
30897;BME280;64229;52.246;21.054;2022-12-10T14:56:30;99738.75;;;1.44;87.54
30897;BME280;64229;52.246;21.054;2022-12-10T14:59:09;99738.22;;;1.36;87.70
30897;BME280;64229;52.246;21.054;2022-12-10T15:01:43;99742.31;;;1.32;88.74
30897;BME280;64229;52.246;21.054;2022-12-10T15:04:16;99751.28;;;1.24;88.47
30897;BME280;64229;52.246;21.054;2022-12-10T15:06:42;99749.63;;;1.30;88.69